sensor_id;sensor_type;location;lat;lon;timestamp;P1;durP1;ratioP1;P2;durP2;ratioP2
28447;SDS011;15675;52.870;-1.416;2022-08-07T00:01:11;7.38;;;1.60;;
28447;SDS011;15675;52.870;-1.416;2022-08-07T00:03:37;3.90;;;1.98;;
28447;SDS011;15675;52.870;-1.416;2022-08-07T00:06:03;4.85;;;1.60;;
28447;SDS011;15675;52.870;-1.416;2022-08-07T00:08:30;3.78;;;1.50;;
28447;SDS011;15675;52.870;-1.416;2022-08-07T00:10:56;4.65;;;2.00;;
28447;SDS011;15675;52.870;-1.416;2022-08-07T00:13:21;5.05;;;1.80;;
28447;SDS011;15675;52.870;-1.416;2022-08-07T00:15:49;5.22;;;2.03;;
28447;SDS011;15675;52.870;-1.416;2022-08-07T00:18:16;4.97;;;1.70;;
28447;SDS011;15675;52.870;-1.416;2022-08-07T00:20:43;6.55;;;1.48;;
28447;SDS011;15675;52.870;-1.416;2022-08-07T00:23:09;3.72;;;1.70;;
28447;SDS011;15675;52.870;-1.416;2022-08-07T00:25:35;3.28;;;1.63;;
28447;SDS011;15675;52.870;-1.416;2022-08-07T00:28:01;3.03;;;1.80;;
28447;SDS011;15675;52.870;-1.416;2022-08-07T00:30:27;3.75;;;1.83;;
28447;SDS011;15675;52.870;-1.416;2022-08-07T00:32:54;4.30;;;1.92;;
28447;SDS011;15675;52.870;-1.416;2022-08-07T00:35:23;6.07;;;1.50;;
28447;SDS011;15675;52.870;-1.416;2022-08-07T00:37:51;4.03;;;1.80;;
28447;SDS011;15675;52.870;-1.416;2022-08-07T00:40:17;3.78;;;1.70;;
28447;SDS011;15675;52.870;-1.416;2022-08-07T00:42:42;2.65;;;1.73;;
28447;SDS011;15675;52.870;-1.416;2022-08-07T00:45:09;3.50;;;2.25;;
28447;SDS011;15675;52.870;-1.416;2022-08-07T00:47:35;3.08;;;1.88;;
28447;SDS011;15675;52.870;-1.416;2022-08-07T00:50:02;5.22;;;2.20;;
28447;SDS011;15675;52.870;-1.416;2022-08-07T00:52:29;4.30;;;2.30;;
28447;SDS011;15675;52.870;-1.416;2022-08-07T00:54:55;2.03;;;1.45;;
28447;SDS011;15675;52.870;-1.416;2022-08-07T00:57:23;3.90;;;2.13;;
28447;SDS011;15675;52.870;-1.416;2022-08-07T00:59:52;5.95;;;2.08;;
28447;SDS011;15675;52.870;-1.416;2022-08-07T01:02:19;5.72;;;2.67;;
28447;SDS011;15675;52.870;-1.416;2022-08-07T01:04:49;5.68;;;2.88;;
28447;SDS011;15675;52.870;-1.416;2022-08-07T01:07:16;11.50;;;2.10;;
28447;SDS011;15675;52.870;-1.416;2022-08-07T01:09:45;3.67;;;2.00;;
28447;SDS011;15675;52.870;-1.416;2022-08-07T01:12:11;3.78;;;2.22;;
28447;SDS011;15675;52.870;-1.416;2022-08-07T01:14:38;5.45;;;2.28;;
28447;SDS011;15675;52.870;-1.416;2022-08-07T01:17:05;5.47;;;2.10;;
28447;SDS011;15675;52.870;-1.416;2022-08-07T01:19:31;3.75;;;2.25;;
28447;SDS011;15675;52.870;-1.416;2022-08-07T01:21:58;5.85;;;2.83;;
28447;SDS011;15675;52.870;-1.416;2022-08-07T01:24:25;5.65;;;3.22;;
28447;SDS011;15675;52.870;-1.416;2022-08-07T01:26:53;4.75;;;2.28;;
28447;SDS011;15675;52.870;-1.416;2022-08-07T01:29:23;3.70;;;2.60;;
28447;SDS011;15675;52.870;-1.416;2022-08-07T01:31:51;6.60;;;2.67;;
28447;SDS011;15675;52.870;-1.416;2022-08-07T01:34:19;3.83;;;2.20;;
28447;SDS011;15675;52.870;-1.416;2022-08-07T01:36:47;4.93;;;2.30;;
28447;SDS011;15675;52.870;-1.416;2022-08-07T01:39:15;4.57;;;2.28;;
28447;SDS011;15675;52.870;-1.416;2022-08-07T01:41:41;5.40;;;2.17;;
28447;SDS011;15675;52.870;-1.416;2022-08-07T01:44:08;4.78;;;2.03;;
28447;SDS011;15675;52.870;-1.416;2022-08-07T01:46:35;6.13;;;2.00;;
28447;SDS011;15675;52.870;-1.416;2022-08-07T01:49:03;7.07;;;2.10;;
28447;SDS011;15675;52.870;-1.416;2022-08-07T01:51:30;4.18;;;2.47;;
28447;SDS011;15675;52.870;-1.416;2022-08-07T01:53:57;5.38;;;2.53;;
28447;SDS011;15675;52.870;-1.416;2022-08-07T01:56:28;4.35;;;2.30;;
28447;SDS011;15675;52.870;-1.416;2022-08-07T01:59:04;5.72;;;2.53;;
28447;SDS011;15675;52.870;-1.416;2022-08-07T02:01:34;5.95;;;2.40;;
28447;SDS011;15675;52.870;-1.416;2022-08-07T02:04:06;3.42;;;2.30;;
28447;SDS011;15675;52.870;-1.416;2022-08-07T02:06:35;4.03;;;1.88;;
28447;SDS011;15675;52.870;-1.416;2022-08-07T02:09:04;3.63;;;2.30;;
28447;SDS011;15675;52.870;-1.416;2022-08-07T02:11:34;8.25;;;2.67;;
28447;SDS011;15675;52.870;-1.416;2022-08-07T02:14:02;4.47;;;2.42;;
28447;SDS011;15675;52.870;-1.416;2022-08-07T02:16:31;4.38;;;2.75;;
28447;SDS011;15675;52.870;-1.416;2022-08-07T02:19:01;4.50;;;2.60;;
28447;SDS011;15675;52.870;-1.416;2022-08-07T02:21:28;4.70;;;3.20;;
28447;SDS011;15675;52.870;-1.416;2022-08-07T02:23:56;5.25;;;3.00;;
28447;SDS011;15675;52.870;-1.416;2022-08-07T02:26:23;6.28;;;2.88;;
28447;SDS011;15675;52.870;-1.416;2022-08-07T02:28:51;4.03;;;2.85;;
28447;SDS011;15675;52.870;-1.416;2022-08-07T02:31:18;7.43;;;2.85;;
28447;SDS011;15675;52.870;-1.416;2022-08-07T02:33:47;5.80;;;3.13;;
28447;SDS011;15675;52.870;-1.416;2022-08-07T02:36:14;5.38;;;3.33;;
28447;SDS011;15675;52.870;-1.416;2022-08-07T02:38:43;5.50;;;3.17;;
28447;SDS011;15675;52.870;-1.416;2022-08-07T02:41:12;5.55;;;3.25;;
28447;SDS011;15675;52.870;-1.416;2022-08-07T02:43:39;7.82;;;3.45;;
28447;SDS011;15675;52.870;-1.416;2022-08-07T02:46:07;8.73;;;3.10;;
28447;SDS011;15675;52.870;-1.416;2022-08-07T02:48:36;7.20;;;3.17;;
28447;SDS011;15675;52.870;-1.416;2022-08-07T02:51:07;5.97;;;3.15;;
28447;SDS011;15675;52.870;-1.416;2022-08-07T02:53:37;7.07;;;3.10;;
28447;SDS011;15675;52.870;-1.416;2022-08-07T02:56:04;5.65;;;3.33;;
28447;SDS011;15675;52.870;-1.416;2022-08-07T02:58:33;4.10;;;3.03;;
28447;SDS011;15675;52.870;-1.416;2022-08-07T03:01:01;7.55;;;3.78;;
28447;SDS011;15675;52.870;-1.416;2022-08-07T03:03:29;6.60;;;3.50;;
28447;SDS011;15675;52.870;-1.416;2022-08-07T03:05:57;8.77;;;4.03;;
28447;SDS011;15675;52.870;-1.416;2022-08-07T03:08:25;7.60;;;3.88;;
28447;SDS011;15675;52.870;-1.416;2022-08-07T03:10:51;6.90;;;3.30;;
28447;SDS011;15675;52.870;-1.416;2022-08-07T03:13:19;7.05;;;3.67;;
28447;SDS011;15675;52.870;-1.416;2022-08-07T03:15:45;4.85;;;3.22;;
28447;SDS011;15675;52.870;-1.416;2022-08-07T03:18:11;6.85;;;3.83;;
28447;SDS011;15675;52.870;-1.416;2022-08-07T03:20:38;6.05;;;3.75;;
28447;SDS011;15675;52.870;-1.416;2022-08-07T03:23:05;6.40;;;3.65;;
28447;SDS011;15675;52.870;-1.416;2022-08-07T03:25:34;4.72;;;3.20;;
28447;SDS011;15675;52.870;-1.416;2022-08-07T03:28:03;7.57;;;3.47;;
28447;SDS011;15675;52.870;-1.416;2022-08-07T03:30:30;5.78;;;3.25;;
28447;SDS011;15675;52.870;-1.416;2022-08-07T03:32:58;5.50;;;3.90;;
28447;SDS011;15675;52.870;-1.416;2022-08-07T03:35:27;6.38;;;3.58;;
28447;SDS011;15675;52.870;-1.416;2022-08-07T03:38:12;4.72;;;3.03;;
28447;SDS011;15675;52.870;-1.416;2022-08-07T03:40:39;8.48;;;3.75;;
28447;SDS011;15675;52.870;-1.416;2022-08-07T03:43:05;6.57;;;3.63;;
28447;SDS011;15675;52.870;-1.416;2022-08-07T03:45:33;7.28;;;3.35;;
28447;SDS011;15675;52.870;-1.416;2022-08-07T03:47:59;7.15;;;3.90;;
28447;SDS011;15675;52.870;-1.416;2022-08-07T03:50:26;5.25;;;2.90;;
28447;SDS011;15675;52.870;-1.416;2022-08-07T03:52:53;5.32;;;3.60;;
28447;SDS011;15675;52.870;-1.416;2022-08-07T03:55:22;6.43;;;3.03;;
28447;SDS011;15675;52.870;-1.416;2022-08-07T03:57:48;7.20;;;3.50;;
28447;SDS011;15675;52.870;-1.416;2022-08-07T04:00:16;6.13;;;3.40;;
28447;SDS011;15675;52.870;-1.416;2022-08-07T04:02:43;5.22;;;3.67;;
28447;SDS011;15675;52.870;-1.416;2022-08-07T04:05:09;14.93;;;4.03;;
28447;SDS011;15675;52.870;-1.416;2022-08-07T04:07:34;6.25;;;3.65;;
28447;SDS011;15675;52.870;-1.416;2022-08-07T04:10:02;8.82;;;3.85;;
28447;SDS011;15675;52.870;-1.416;2022-08-07T04:12:34;4.85;;;3.53;;
28447;SDS011;15675;52.870;-1.416;2022-08-07T04:15:00;6.53;;;3.60;;
28447;SDS011;15675;52.870;-1.416;2022-08-07T04:17:26;6.80;;;3.50;;
28447;SDS011;15675;52.870;-1.416;2022-08-07T04:19:52;9.07;;;4.13;;
28447;SDS011;15675;52.870;-1.416;2022-08-07T04:22:18;6.43;;;4.05;;
28447;SDS011;15675;52.870;-1.416;2022-08-07T04:24:45;6.68;;;4.15;;
28447;SDS011;15675;52.870;-1.416;2022-08-07T04:27:13;7.30;;;4.13;;
28447;SDS011;15675;52.870;-1.416;2022-08-07T04:29:39;7.90;;;3.60;;
28447;SDS011;15675;52.870;-1.416;2022-08-07T04:32:08;6.75;;;4.13;;
28447;SDS011;15675;52.870;-1.416;2022-08-07T04:34:34;10.55;;;4.47;;
28447;SDS011;15675;52.870;-1.416;2022-08-07T04:37:01;7.05;;;4.63;;
28447;SDS011;15675;52.870;-1.416;2022-08-07T04:39:27;7.93;;;4.00;;
28447;SDS011;15675;52.870;-1.416;2022-08-07T04:41:53;10.98;;;4.53;;
28447;SDS011;15675;52.870;-1.416;2022-08-07T04:44:19;9.35;;;4.43;;
28447;SDS011;15675;52.870;-1.416;2022-08-07T04:47:06;6.75;;;3.83;;
28447;SDS011;15675;52.870;-1.416;2022-08-07T04:49:43;10.13;;;4.10;;
28447;SDS011;15675;52.870;-1.416;2022-08-07T04:52:16;8.68;;;4.30;;
28447;SDS011;15675;52.870;-1.416;2022-08-07T04:55:05;9.90;;;4.25;;
28447;SDS011;15675;52.870;-1.416;2022-08-07T05:00:41;10.02;;;3.78;;
28447;SDS011;15675;52.870;-1.416;2022-08-07T05:03:22;7.10;;;4.37;;
28447;SDS011;15675;52.870;-1.416;2022-08-07T05:05:58;5.80;;;3.80;;
28447;SDS011;15675;52.870;-1.416;2022-08-07T05:11:30;6.43;;;4.03;;
28447;SDS011;15675;52.870;-1.416;2022-08-07T05:14:04;9.40;;;4.07;;
28447;SDS011;15675;52.870;-1.416;2022-08-07T05:16:35;9.88;;;3.75;;
28447;SDS011;15675;52.870;-1.416;2022-08-07T05:19:09;5.75;;;3.58;;
28447;SDS011;15675;52.870;-1.416;2022-08-07T05:21:37;8.38;;;3.67;;
28447;SDS011;15675;52.870;-1.416;2022-08-07T05:24:09;6.88;;;4.25;;
28447;SDS011;15675;52.870;-1.416;2022-08-07T05:26:37;6.85;;;3.92;;
28447;SDS011;15675;52.870;-1.416;2022-08-07T05:29:05;10.90;;;4.00;;
28447;SDS011;15675;52.870;-1.416;2022-08-07T05:31:38;5.43;;;3.72;;
28447;SDS011;15675;52.870;-1.416;2022-08-07T05:34:09;5.80;;;3.72;;
28447;SDS011;15675;52.870;-1.416;2022-08-07T05:36:45;7.40;;;3.83;;
28447;SDS011;15675;52.870;-1.416;2022-08-07T05:39:14;4.78;;;3.60;;
28447;SDS011;15675;52.870;-1.416;2022-08-07T05:41:42;7.07;;;3.88;;
28447;SDS011;15675;52.870;-1.416;2022-08-07T05:44:09;5.18;;;3.47;;
28447;SDS011;15675;52.870;-1.416;2022-08-07T05:46:36;4.90;;;3.60;;
28447;SDS011;15675;52.870;-1.416;2022-08-07T05:49:04;7.43;;;3.85;;
28447;SDS011;15675;52.870;-1.416;2022-08-07T05:51:32;7.30;;;3.60;;
28447;SDS011;15675;52.870;-1.416;2022-08-07T05:53:58;8.07;;;3.50;;
28447;SDS011;15675;52.870;-1.416;2022-08-07T05:56:25;5.80;;;3.67;;
28447;SDS011;15675;52.870;-1.416;2022-08-07T05:58:52;5.97;;;3.53;;
28447;SDS011;15675;52.870;-1.416;2022-08-07T06:01:18;7.05;;;3.30;;
28447;SDS011;15675;52.870;-1.416;2022-08-07T06:03:49;7.22;;;3.30;;
28447;SDS011;15675;52.870;-1.416;2022-08-07T06:06:18;4.55;;;3.30;;
28447;SDS011;15675;52.870;-1.416;2022-08-07T06:08:45;7.05;;;3.05;;
28447;SDS011;15675;52.870;-1.416;2022-08-07T06:11:12;8.20;;;3.85;;
28447;SDS011;15675;52.870;-1.416;2022-08-07T06:13:38;5.53;;;3.33;;
28447;SDS011;15675;52.870;-1.416;2022-08-07T06:16:07;5.03;;;2.78;;
28447;SDS011;15675;52.870;-1.416;2022-08-07T06:18:35;4.10;;;3.00;;
28447;SDS011;15675;52.870;-1.416;2022-08-07T06:21:02;5.32;;;2.65;;
28447;SDS011;15675;52.870;-1.416;2022-08-07T06:23:29;5.38;;;2.97;;
28447;SDS011;15675;52.870;-1.416;2022-08-07T06:25:56;6.47;;;2.97;;
28447;SDS011;15675;52.870;-1.416;2022-08-07T06:28:22;8.88;;;3.08;;
28447;SDS011;15675;52.870;-1.416;2022-08-07T06:30:50;3.58;;;2.58;;
28447;SDS011;15675;52.870;-1.416;2022-08-07T06:33:16;3.83;;;2.40;;
28447;SDS011;15675;52.870;-1.416;2022-08-07T06:35:43;7.38;;;2.50;;
28447;SDS011;15675;52.870;-1.416;2022-08-07T06:38:09;7.13;;;2.33;;
28447;SDS011;15675;52.870;-1.416;2022-08-07T06:40:39;6.93;;;2.60;;
28447;SDS011;15675;52.870;-1.416;2022-08-07T06:43:10;3.38;;;2.42;;
28447;SDS011;15675;52.870;-1.416;2022-08-07T06:45:37;7.55;;;2.00;;
28447;SDS011;15675;52.870;-1.416;2022-08-07T06:48:04;5.78;;;2.20;;
28447;SDS011;15675;52.870;-1.416;2022-08-07T06:50:31;4.95;;;2.28;;
28447;SDS011;15675;52.870;-1.416;2022-08-07T06:52:58;3.63;;;2.35;;
28447;SDS011;15675;52.870;-1.416;2022-08-07T06:55:28;3.30;;;2.05;;
28447;SDS011;15675;52.870;-1.416;2022-08-07T06:57:59;6.30;;;2.13;;
28447;SDS011;15675;52.870;-1.416;2022-08-07T07:00:27;4.80;;;2.03;;
28447;SDS011;15675;52.870;-1.416;2022-08-07T07:02:57;4.05;;;2.15;;
28447;SDS011;15675;52.870;-1.416;2022-08-07T07:05:23;3.67;;;2.20;;
28447;SDS011;15675;52.870;-1.416;2022-08-07T07:07:49;3.55;;;2.10;;
28447;SDS011;15675;52.870;-1.416;2022-08-07T07:10:16;2.78;;;1.70;;
28447;SDS011;15675;52.870;-1.416;2022-08-07T07:12:54;3.05;;;1.95;;
28447;SDS011;15675;52.870;-1.416;2022-08-07T07:15:26;5.40;;;1.90;;
28447;SDS011;15675;52.870;-1.416;2022-08-07T07:20:58;3.92;;;1.70;;
28447;SDS011;15675;52.870;-1.416;2022-08-07T07:23:29;2.92;;;1.60;;
28447;SDS011;15675;52.870;-1.416;2022-08-07T07:25:59;3.47;;;1.65;;
28447;SDS011;15675;52.870;-1.416;2022-08-07T07:28:28;2.50;;;1.63;;
28447;SDS011;15675;52.870;-1.416;2022-08-07T07:31:04;3.28;;;1.75;;
28447;SDS011;15675;52.870;-1.416;2022-08-07T07:33:34;3.95;;;1.67;;
28447;SDS011;15675;52.870;-1.416;2022-08-07T07:36:02;4.32;;;1.75;;
28447;SDS011;15675;52.870;-1.416;2022-08-07T07:38:30;5.03;;;1.70;;
28447;SDS011;15675;52.870;-1.416;2022-08-07T07:40:57;3.83;;;1.30;;
28447;SDS011;15675;52.870;-1.416;2022-08-07T07:43:28;7.95;;;1.73;;
28447;SDS011;15675;52.870;-1.416;2022-08-07T07:45:56;3.58;;;1.45;;
28447;SDS011;15675;52.870;-1.416;2022-08-07T07:48:24;3.13;;;1.33;;
28447;SDS011;15675;52.870;-1.416;2022-08-07T07:50:51;2.30;;;1.20;;
28447;SDS011;15675;52.870;-1.416;2022-08-07T07:53:20;3.55;;;1.60;;
28447;SDS011;15675;52.870;-1.416;2022-08-07T07:55:49;4.25;;;1.65;;
28447;SDS011;15675;52.870;-1.416;2022-08-07T07:58:17;3.55;;;1.83;;
28447;SDS011;15675;52.870;-1.416;2022-08-07T08:00:44;2.60;;;1.70;;
28447;SDS011;15675;52.870;-1.416;2022-08-07T08:03:12;3.65;;;1.60;;
28447;SDS011;15675;52.870;-1.416;2022-08-07T08:05:40;5.20;;;2.15;;
28447;SDS011;15675;52.870;-1.416;2022-08-07T08:08:10;4.25;;;1.90;;
28447;SDS011;15675;52.870;-1.416;2022-08-07T08:10:37;3.33;;;1.70;;
28447;SDS011;15675;52.870;-1.416;2022-08-07T08:13:04;8.82;;;2.05;;
28447;SDS011;15675;52.870;-1.416;2022-08-07T08:15:33;7.15;;;2.00;;
28447;SDS011;15675;52.870;-1.416;2022-08-07T08:18:02;6.85;;;2.13;;
28447;SDS011;15675;52.870;-1.416;2022-08-07T08:20:33;4.15;;;1.73;;
28447;SDS011;15675;52.870;-1.416;2022-08-07T08:23:00;6.20;;;1.92;;
28447;SDS011;15675;52.870;-1.416;2022-08-07T08:25:46;4.90;;;1.83;;
28447;SDS011;15675;52.870;-1.416;2022-08-07T08:28:35;5.75;;;2.00;;
28447;SDS011;15675;52.870;-1.416;2022-08-07T08:31:08;2.90;;;1.65;;
28447;SDS011;15675;52.870;-1.416;2022-08-07T08:33:37;8.35;;;1.95;;
28447;SDS011;15675;52.870;-1.416;2022-08-07T08:36:05;3.50;;;1.75;;
28447;SDS011;15675;52.870;-1.416;2022-08-07T08:38:34;6.70;;;1.60;;
28447;SDS011;15675;52.870;-1.416;2022-08-07T08:41:52;5.90;;;2.10;;
28447;SDS011;15675;52.870;-1.416;2022-08-07T08:44:17;5.80;;;2.10;;
28447;SDS011;15675;52.870;-1.416;2022-08-07T08:46:55;7.30;;;1.90;;
28447;SDS011;15675;52.870;-1.416;2022-08-07T08:52:27;6.95;;;2.33;;
28447;SDS011;15675;52.870;-1.416;2022-08-07T08:54:58;3.35;;;1.70;;
28447;SDS011;15675;52.870;-1.416;2022-08-07T08:57:36;4.13;;;2.15;;
28447;SDS011;15675;52.870;-1.416;2022-08-07T09:00:07;3.75;;;1.98;;
28447;SDS011;15675;52.870;-1.416;2022-08-07T09:05:28;2.97;;;1.70;;
28447;SDS011;15675;52.870;-1.416;2022-08-07T09:08:49;6.63;;;1.70;;
28447;SDS011;15675;52.870;-1.416;2022-08-07T09:11:34;3.60;;;1.83;;
28447;SDS011;15675;52.870;-1.416;2022-08-07T09:19:56;12.00;;;2.17;;
28447;SDS011;15675;52.870;-1.416;2022-08-07T09:22:37;4.00;;;1.70;;
28447;SDS011;15675;52.870;-1.416;2022-08-07T09:25:12;5.63;;;1.60;;
28447;SDS011;15675;52.870;-1.416;2022-08-07T09:28:05;6.63;;;1.95;;
28447;SDS011;15675;52.870;-1.416;2022-08-07T09:33:18;3.97;;;2.00;;
28447;SDS011;15675;52.870;-1.416;2022-08-07T09:39:02;5.35;;;1.70;;
28447;SDS011;15675;52.870;-1.416;2022-08-07T09:52:47;3.67;;;1.70;;
28447;SDS011;15675;52.870;-1.416;2022-08-07T09:55:19;5.60;;;1.60;;
28447;SDS011;15675;52.870;-1.416;2022-08-07T10:00:26;3.72;;;1.17;;
28447;SDS011;15675;52.870;-1.416;2022-08-07T10:03:21;2.70;;;1.70;;
28447;SDS011;15675;52.870;-1.416;2022-08-07T10:15:17;5.22;;;1.50;;
28447;SDS011;15675;52.870;-1.416;2022-08-07T10:24:01;3.67;;;1.23;;
28447;SDS011;15675;52.870;-1.416;2022-08-07T10:26:48;2.95;;;1.50;;
28447;SDS011;15675;52.870;-1.416;2022-08-07T10:29:56;6.60;;;1.50;;
28447;SDS011;15675;52.870;-1.416;2022-08-07T10:35:08;5.57;;;1.40;;
28447;SDS011;15675;52.870;-1.416;2022-08-07T10:37:54;3.83;;;1.25;;
28447;SDS011;15675;52.870;-1.416;2022-08-07T10:43:23;7.68;;;1.73;;
28447;SDS011;15675;52.870;-1.416;2022-08-07T10:45:54;3.33;;;1.20;;
28447;SDS011;15675;52.870;-1.416;2022-08-07T10:48:35;2.85;;;1.08;;
28447;SDS011;15675;52.870;-1.416;2022-08-07T10:54:10;5.32;;;1.38;;
28447;SDS011;15675;52.870;-1.416;2022-08-07T11:02:45;5.15;;;1.10;;
28447;SDS011;15675;52.870;-1.416;2022-08-07T11:05:29;2.83;;;1.05;;
28447;SDS011;15675;52.870;-1.416;2022-08-07T11:13:26;4.78;;;1.45;;
28447;SDS011;15675;52.870;-1.416;2022-08-07T11:16:07;8.65;;;1.60;;
28447;SDS011;15675;52.870;-1.416;2022-08-07T11:18:47;5.30;;;1.30;;
28447;SDS011;15675;52.870;-1.416;2022-08-07T11:24:04;7.53;;;1.30;;
28447;SDS011;15675;52.870;-1.416;2022-08-07T11:26:42;5.10;;;1.05;;
28447;SDS011;15675;52.870;-1.416;2022-08-07T11:35:01;4.28;;;1.48;;
28447;SDS011;15675;52.870;-1.416;2022-08-07T12:05:45;3.90;;;1.17;;
28447;SDS011;15675;52.870;-1.416;2022-08-07T12:08:23;4.55;;;1.20;;
28447;SDS011;15675;52.870;-1.416;2022-08-07T12:11:10;3.05;;;1.00;;
28447;SDS011;15675;52.870;-1.416;2022-08-07T12:13:52;1.63;;;0.70;;
28447;SDS011;15675;52.870;-1.416;2022-08-07T12:16:30;7.15;;;1.17;;
28447;SDS011;15675;52.870;-1.416;2022-08-07T12:19:11;2.80;;;0.88;;
28447;SDS011;15675;52.870;-1.416;2022-08-07T12:24:33;9.25;;;1.33;;
28447;SDS011;15675;52.870;-1.416;2022-08-07T12:27:25;2.15;;;1.00;;
28447;SDS011;15675;52.870;-1.416;2022-08-07T12:30:16;4.63;;;1.17;;
28447;SDS011;15675;52.870;-1.416;2022-08-07T12:32:44;4.72;;;1.15;;
28447;SDS011;15675;52.870;-1.416;2022-08-07T12:35:16;3.10;;;1.58;;
28447;SDS011;15675;52.870;-1.416;2022-08-07T12:37:46;9.18;;;1.75;;
28447;SDS011;15675;52.870;-1.416;2022-08-07T12:40:21;5.25;;;1.70;;
28447;SDS011;15675;52.870;-1.416;2022-08-07T12:42:50;6.10;;;1.75;;
28447;SDS011;15675;52.870;-1.416;2022-08-07T12:45:18;5.72;;;1.38;;
28447;SDS011;15675;52.870;-1.416;2022-08-07T12:51:06;3.75;;;1.65;;
28447;SDS011;15675;52.870;-1.416;2022-08-07T12:56:35;5.03;;;1.33;;
28447;SDS011;15675;52.870;-1.416;2022-08-07T12:59:04;6.07;;;1.63;;
28447;SDS011;15675;52.870;-1.416;2022-08-07T13:01:44;7.68;;;1.55;;
28447;SDS011;15675;52.870;-1.416;2022-08-07T13:10:40;5.68;;;1.92;;
28447;SDS011;15675;52.870;-1.416;2022-08-07T13:21:41;4.45;;;1.35;;
28447;SDS011;15675;52.870;-1.416;2022-08-07T13:24:22;2.88;;;1.13;;
28447;SDS011;15675;52.870;-1.416;2022-08-07T13:27:07;3.83;;;1.35;;
28447;SDS011;15675;52.870;-1.416;2022-08-07T13:43:25;3.75;;;1.30;;
28447;SDS011;15675;52.870;-1.416;2022-08-07T13:45:53;2.20;;;1.17;;
28447;SDS011;15675;52.870;-1.416;2022-08-07T13:48:21;4.93;;;1.20;;
28447;SDS011;15675;52.870;-1.416;2022-08-07T13:50:49;3.60;;;0.90;;
28447;SDS011;15675;52.870;-1.416;2022-08-07T13:53:24;6.55;;;1.52;;
28447;SDS011;15675;52.870;-1.416;2022-08-07T13:55:53;4.45;;;1.20;;
28447;SDS011;15675;52.870;-1.416;2022-08-07T13:58:23;5.35;;;1.42;;
28447;SDS011;15675;52.870;-1.416;2022-08-07T14:01:11;3.22;;;1.00;;
28447;SDS011;15675;52.870;-1.416;2022-08-07T14:03:40;2.95;;;1.00;;
28447;SDS011;15675;52.870;-1.416;2022-08-07T14:06:10;3.97;;;1.00;;
28447;SDS011;15675;52.870;-1.416;2022-08-07T14:08:48;3.47;;;1.35;;
28447;SDS011;15675;52.870;-1.416;2022-08-07T14:11:18;4.70;;;1.08;;
28447;SDS011;15675;52.870;-1.416;2022-08-07T14:13:48;4.68;;;0.90;;
28447;SDS011;15675;52.870;-1.416;2022-08-07T14:16:23;3.45;;;0.98;;
28447;SDS011;15675;52.870;-1.416;2022-08-07T14:18:54;6.80;;;1.20;;
28447;SDS011;15675;52.870;-1.416;2022-08-07T14:23:53;4.80;;;1.20;;
28447;SDS011;15675;52.870;-1.416;2022-08-07T14:26:48;4.90;;;1.38;;
28447;SDS011;15675;52.870;-1.416;2022-08-07T14:29:20;3.45;;;1.25;;
28447;SDS011;15675;52.870;-1.416;2022-08-07T14:32:03;3.88;;;1.30;;
28447;SDS011;15675;52.870;-1.416;2022-08-07T14:34:32;2.83;;;0.90;;
28447;SDS011;15675;52.870;-1.416;2022-08-07T14:37:00;3.67;;;0.98;;
28447;SDS011;15675;52.870;-1.416;2022-08-07T14:39:28;3.85;;;1.00;;
28447;SDS011;15675;52.870;-1.416;2022-08-07T14:41:56;4.07;;;0.98;;
28447;SDS011;15675;52.870;-1.416;2022-08-07T14:44:25;5.35;;;0.88;;
28447;SDS011;15675;52.870;-1.416;2022-08-07T14:46:57;6.97;;;0.90;;
28447;SDS011;15675;52.870;-1.416;2022-08-07T14:49:28;3.75;;;1.00;;
28447;SDS011;15675;52.870;-1.416;2022-08-07T14:51:57;3.22;;;1.00;;
28447;SDS011;15675;52.870;-1.416;2022-08-07T14:54:28;5.18;;;1.23;;
28447;SDS011;15675;52.870;-1.416;2022-08-07T14:56:56;2.75;;;0.90;;
28447;SDS011;15675;52.870;-1.416;2022-08-07T14:59:25;4.28;;;0.95;;
28447;SDS011;15675;52.870;-1.416;2022-08-07T15:01:53;4.30;;;0.90;;
28447;SDS011;15675;52.870;-1.416;2022-08-07T15:04:23;5.55;;;1.10;;
28447;SDS011;15675;52.870;-1.416;2022-08-07T15:06:50;3.72;;;1.08;;
28447;SDS011;15675;52.870;-1.416;2022-08-07T15:09:17;5.25;;;1.10;;
28447;SDS011;15675;52.870;-1.416;2022-08-07T15:12:04;3.80;;;0.93;;
28447;SDS011;15675;52.870;-1.416;2022-08-07T15:14:34;3.95;;;0.88;;
28447;SDS011;15675;52.870;-1.416;2022-08-07T15:17:03;2.85;;;0.90;;
28447;SDS011;15675;52.870;-1.416;2022-08-07T15:19:38;6.68;;;1.17;;
28447;SDS011;15675;52.870;-1.416;2022-08-07T15:22:15;2.67;;;0.85;;
28447;SDS011;15675;52.870;-1.416;2022-08-07T15:24:41;4.60;;;1.35;;
28447;SDS011;15675;52.870;-1.416;2022-08-07T15:27:21;6.32;;;0.98;;
28447;SDS011;15675;52.870;-1.416;2022-08-07T15:29:59;3.30;;;0.82;;
28447;SDS011;15675;52.870;-1.416;2022-08-07T15:32:31;4.07;;;1.00;;
28447;SDS011;15675;52.870;-1.416;2022-08-07T15:34:59;3.95;;;0.85;;
28447;SDS011;15675;52.870;-1.416;2022-08-07T15:37:29;6.10;;;0.98;;
28447;SDS011;15675;52.870;-1.416;2022-08-07T15:39:58;4.35;;;0.80;;
28447;SDS011;15675;52.870;-1.416;2022-08-07T15:45:03;2.35;;;0.82;;
28447;SDS011;15675;52.870;-1.416;2022-08-07T15:47:35;4.90;;;0.90;;
28447;SDS011;15675;52.870;-1.416;2022-08-07T15:50:04;4.38;;;1.10;;
28447;SDS011;15675;52.870;-1.416;2022-08-07T15:52:33;5.88;;;0.90;;
28447;SDS011;15675;52.870;-1.416;2022-08-07T15:55:01;2.42;;;0.80;;
28447;SDS011;15675;52.870;-1.416;2022-08-07T15:57:29;6.10;;;1.13;;
28447;SDS011;15675;52.870;-1.416;2022-08-07T15:59:57;3.17;;;0.60;;
28447;SDS011;15675;52.870;-1.416;2022-08-07T16:02:25;4.70;;;1.00;;
28447;SDS011;15675;52.870;-1.416;2022-08-07T16:04:58;2.20;;;0.85;;
28447;SDS011;15675;52.870;-1.416;2022-08-07T16:07:31;1.58;;;0.63;;
28447;SDS011;15675;52.870;-1.416;2022-08-07T16:15:45;3.92;;;0.93;;
28447;SDS011;15675;52.870;-1.416;2022-08-07T16:24:13;9.13;;;1.08;;
28447;SDS011;15675;52.870;-1.416;2022-08-07T16:27:07;2.28;;;0.70;;
28447;SDS011;15675;52.870;-1.416;2022-08-07T16:29:49;2.25;;;0.70;;
28447;SDS011;15675;52.870;-1.416;2022-08-07T16:32:42;2.50;;;0.60;;
28447;SDS011;15675;52.870;-1.416;2022-08-07T16:35:13;3.97;;;0.82;;
28447;SDS011;15675;52.870;-1.416;2022-08-07T16:38:08;5.03;;;0.80;;
28447;SDS011;15675;52.870;-1.416;2022-08-07T16:51:51;2.22;;;0.50;;
28447;SDS011;15675;52.870;-1.416;2022-08-07T16:57:37;2.90;;;0.75;;
28447;SDS011;15675;52.870;-1.416;2022-08-07T17:00:26;2.17;;;0.75;;
28447;SDS011;15675;52.870;-1.416;2022-08-07T17:03:19;2.97;;;0.68;;
28447;SDS011;15675;52.870;-1.416;2022-08-07T17:08:37;3.40;;;0.82;;
28447;SDS011;15675;52.870;-1.416;2022-08-07T17:11:31;3.60;;;0.80;;
28447;SDS011;15675;52.870;-1.416;2022-08-07T17:14:06;3.42;;;0.95;;
28447;SDS011;15675;52.870;-1.416;2022-08-07T17:16:41;6.45;;;1.25;;
28447;SDS011;15675;52.870;-1.416;2022-08-07T17:19:25;4.95;;;0.77;;
28447;SDS011;15675;52.870;-1.416;2022-08-07T17:22:21;1.98;;;0.65;;
28447;SDS011;15675;52.870;-1.416;2022-08-07T17:25:02;4.95;;;0.88;;
28447;SDS011;15675;52.870;-1.416;2022-08-07T17:30:09;3.63;;;0.80;;
28447;SDS011;15675;52.870;-1.416;2022-08-07T17:32:38;3.05;;;0.80;;
28447;SDS011;15675;52.870;-1.416;2022-08-07T17:35:18;5.30;;;0.98;;
28447;SDS011;15675;52.870;-1.416;2022-08-07T17:43:27;4.55;;;1.00;;
28447;SDS011;15675;52.870;-1.416;2022-08-07T17:46:13;3.17;;;0.98;;
28447;SDS011;15675;52.870;-1.416;2022-08-07T17:48:50;2.85;;;0.93;;
28447;SDS011;15675;52.870;-1.416;2022-08-07T17:51:21;4.20;;;0.82;;
28447;SDS011;15675;52.870;-1.416;2022-08-07T17:54:06;7.13;;;1.10;;
28447;SDS011;15675;52.870;-1.416;2022-08-07T17:59:47;2.75;;;1.10;;
28447;SDS011;15675;52.870;-1.416;2022-08-07T18:02:20;3.50;;;0.90;;
28447;SDS011;15675;52.870;-1.416;2022-08-07T18:05:03;2.95;;;0.80;;
28447;SDS011;15675;52.870;-1.416;2022-08-07T18:07:40;4.45;;;1.00;;
28447;SDS011;15675;52.870;-1.416;2022-08-07T18:10:14;6.72;;;0.82;;
28447;SDS011;15675;52.870;-1.416;2022-08-07T18:16:02;4.57;;;1.00;;
28447;SDS011;15675;52.870;-1.416;2022-08-07T18:18:43;3.03;;;1.00;;